Corsicana, TX

11:16 PM CST on December 22, 2014 (GMT -0600)
Carol Ave | Change Station
CLOSE
Current Station
Personal Weather Station
Location: Corsicana, TX
Elevation: 460 ft
Nearby Weather Stations

Elev 460 ft 32.12 °N, 96.49 °W | Updated 1 minute ago

Mostly Cloudy
Mostly Cloudy
52.1 °F
Feels Like 52.1 °F
N
0.0
Wind Variable Wind from West
Gusts 0.0 mph

Today
High -- | Low -- °F
--% Chance of Precip.
Yesterday
High -- | Low -- °F
Precip. -- in
7:23 AM 5:26 PM
New Moon, 2% visible
Pressure 29.69 in
Visibility 10.0 miles
Clouds Clear
Dew Point 47 °F
Humidity 83%
Rainfall 0.00 in
Snow Depth Not available.
UV 0 out of 12
Pollen 10.30 out of 12
Air Quality Not available.
Flu Activity Not available.
METAR KCRS 230453Z AUTO 00000KT 10SM CLR 12/07 A2969 RMK AO2 SLP052 T01220072

More Conditions Fewer Conditions

Pressure 29.69 in
Visibility 10.0 miles
Clouds Clear
Dew Point 47 °F
Humidity 83%
Rainfall 0.00 in
Snow Depth Not available.
UV 0 out of 12
Pollen 10.30 out of 12
Air Quality Not available.
Flu Activity Not available.
METAR KCRS 230453Z AUTO 00000KT 10SM CLR 12/07 A2969 RMK AO2 SLP052 T01220072

More Conditions Fewer Conditions

Nowcast | as of 9:56 PM CST on December 22, 2014

An area of mostly light rain...occurring west of a Mineral Wells to Nocona line at 10 PM...will spread east along and north of I-20 to a Sherman to McKinney line by 2 am. Only light rainfall is expected with amounts generally several hundredths of an inch over 2 or 3 hours.

×

10-Day Weather Forecast

Almanac

Astronomy

Dec. 22, 2014 Rise Set
Actual Time
Civil Twilight
Nautical Twilight
Astronomical Twilight
Moon
Length of Visible Light
Length of Day
Tomorrow will be .
, % of the Moon is Illuminated

Today's Extremes

State Highs State Lows

Community

WunderPhotos

Upload Photos

1,779,781 photos uploaded!

WunderBlogs® & News

Nearby

Air Quality

  Air Quality AQ Index Pollutant
Not available.

Snow Depth

Station Depth Elevation

Earthquake Activity

City Distance Mag. Time & Date
Minimum magnitude displayed is 2.5.

Coastal Water Temperatures

Place Temperature

Nearby Weather Stations